Terminal Aerodrome Forecast
Issued by NWS Tampa Bay Area, FL

Home | Current Version | Previous Version | Text Only | Print | Product List | Glossary On
Versions: 1 2 3 4 5 6 7 8 9 10 11 12 13 14 15 16 17 18 19 20 21 22 23 24 25 26
000
FTUS42 KTBW 051141
TAFTPA
TAF
KTPA 051141Z 0512/0612 VRB03KT P6SM FEW020 BKN250
     FM051600 24005KT P6SM VCTS SCT025CB SCT250
     FM051800 27007KT P6SM VCTS SCT035CB SCT100 BKN250
     FM052100 32006KT P6SM VCTS SCT040CB SCT100 BKN200
     FM060200 VRB03KT P6SM SCT040 SCT150 BKN250=

USA.gov is the U.S. government's official web portal to all federal, state and local government web resources and services.